Time;durP1;ratioP1;P1;durP2;ratioP2;P2;SDS_P1;SDS_P2;PMS_P1;PMS_P2;Temp;Humidity;BMP_temperature;BMP_pressure;BME280_temperature;BME280_humidity;BME280_pressure;Samples;Min_cycle;Max_cycle;Signal;HPM_P1;HPM_P2
2023/12/22 00:00:35;;;;;;;;;;;;;;;;;;12901349;22;19916;-83
2023/12/22 00:05:35;;;;;;;;;;;;;;;;;;12940566;22;19924;-80
2023/12/22 00:10:37;;;;;;;;;;;;;;;;;;12933485;22;19899;-84
2023/12/22 00:15:38;;;;;;;;;;;;;;;;;;12920311;22;19964;-80
2023/12/22 00:20:38;;;;;;;;;;;;;;;;;;12932240;22;19917;-83
2023/12/22 00:25:39;;;;;;;;;;;;;;;;;;12952369;22;19918;-82
2023/12/22 00:30:44;;;;;;;;;;;;;;;;;;12935929;22;19908;-86
2023/12/22 00:35:44;;;;;;;;;;;;;;;;;;12892380;22;20433;-82
2023/12/22 00:40:46;;;;;;;;;;;;;;;;;;12879541;22;19920;-85
2023/12/22 00:45:47;;;;;;;;;;;;;;;;;;12875170;22;19916;-79
2023/12/22 00:50:48;;;;;;;;;;;;;;;;;;12891159;22;19916;-80
2023/12/22 00:55:53;;;;;;;;;;;;;;;;;;12887643;22;19927;-79
2023/12/22 01:00:55;;;;;;;;;;;;;;;;;;12849909;22;20060;-83
2023/12/22 01:06:21;;;;;;;;;;;;;;;;;;12861476;22;20283;-82
2023/12/22 01:11:22;;;;;;;;;;;;;;;;;;12842648;22;19922;-85
2023/12/22 01:16:23;;;;;;;;;;;;;;;;;;12865364;22;19951;-83
2023/12/22 01:21:24;;;;;;;;;;;;;;;;;;12945486;22;19903;-82
2023/12/22 01:26:24;;;;;;;;;;;;;;;;;;12916475;22;19916;-82
2023/12/22 01:31:25;;;;;;;;;;;;;;;;;;12871012;22;19991;-82
2023/12/22 01:36:25;;;;;;;;;;;;;;;;;;12801875;22;20008;-82
2023/12/22 01:41:27;;;;;;;;;;;;;;;;;;12853256;22;20487;-85
2023/12/22 01:46:27;;;;;;;;;;;;;;;;;;12836268;22;19933;-81
2023/12/22 01:51:28;;;;;;;;;;;;;;;;;;12864402;22;19936;-82
2023/12/22 01:56:28;;;;;;;;;;;;;;;;;;12883774;22;19923;-81
2023/12/22 02:01:29;;;;;;;;;;;;;;;;;;12881494;22;20293;-82
2023/12/22 02:06:30;;;;;;;;;;;;;;;;;;12882927;22;19916;-81
2023/12/22 02:11:32;;;;;;;;;;;;;;;;;;12870351;22;20625;-80
2023/12/22 02:16:33;;;;;;;;;;;;;;;;;;12850682;22;19931;-82
2023/12/22 02:21:35;;;;;;;;;;;;;;;;;;12828480;22;19922;-81
2023/12/22 02:26:36;;;;;;;;;;;;;;;;;;12886473;22;19994;-83
2023/12/22 02:31:38;;;;;;;;;;;;;;;;;;12890276;22;19992;-84
2023/12/22 02:36:43;;;;;;;;;;;;;;;;;;12876348;22;19924;-79
2023/12/22 02:41:43;;;;;;;;;;;;;;;;;;12876155;22;19916;-83
2023/12/22 02:46:44;;;;;;;;;;;;;;;;;;12886619;22;19916;-81
2023/12/22 02:51:44;;;;;;;;;;;;;;;;;;12847355;22;20253;-80
2023/12/22 02:56:44;;;;;;;;;;;;;;;;;;12877657;22;19923;-78
2023/12/22 03:01:45;;;;;;;;;;;;;;;;;;12838530;22;19935;-81
2023/12/22 03:06:46;;;;;;;;;;;;;;;;;;12899285;22;20445;-83
2023/12/22 03:11:47;;;;;;;;;;;;;;;;;;12947564;22;19941;-85
2023/12/22 03:16:48;;;;;;;;;;;;;;;;;;12921120;22;19972;-80
2023/12/22 03:21:48;;;;;;;;;;;;;;;;;;12910694;22;19939;-82
2023/12/22 03:26:50;;;;;;;;;;;;;;;;;;12878533;22;20489;-81
2023/12/22 03:31:53;;;;;;;;;;;;;;;;;;12848580;22;19916;-80
2023/12/22 03:36:53;;;;;;;;;;;;;;;;;;12831011;22;19934;-80
2023/12/22 03:41:55;;;;;;;;;;;;;;;;;;12853863;22;19915;-80
2023/12/22 03:46:56;;;;;;;;;;;;;;;;;;12868651;22;19996;-79
2023/12/22 03:51:58;;;;;;;;;;;;;;;;;;12852980;22;19938;-80
2023/12/22 03:57:00;;;;;;;;;;;;;;;;;;12830013;22;19927;-81
2023/12/22 04:02:01;;;;;;;;;;;;;;;;;;12881949;22;19953;-79
2023/12/22 04:07:03;;;;;;;;;;;;;;;;;;12892681;22;20033;-80
2023/12/22 04:12:03;;;;;;;;;;;;;;;;;;12872308;22;19911;-82
2023/12/22 04:17:03;;;;;;;;;;;;;;;;;;12911778;22;19923;-82
2023/12/22 04:22:04;;;;;;;;;;;;;;;;;;12884407;22;19916;-82
2023/12/22 04:27:04;;;;;;;;;;;;;;;;;;12923743;22;19912;-81
2023/12/22 04:32:04;;;;;;;;;;;;;;;;;;12905896;22;20593;-83
2023/12/22 04:37:06;;;;;;;;;;;;;;;;;;12909081;22;19951;-81
2023/12/22 04:42:07;;;;;;;;;;;;;;;;;;12927487;22;19947;-81
2023/12/22 04:47:09;;;;;;;;;;;;;;;;;;12932779;22;19941;-83
2023/12/22 04:52:09;;;;;;;;;;;;;;;;;;12914674;22;19981;-81
2023/12/22 04:57:10;;;;;;;;;;;;;;;;;;12929208;22;19923;-84
2023/12/22 05:02:10;;;;;;;;;;;;;;;;;;12959353;22;19900;-81
2023/12/22 05:07:11;;;;;;;;;;;;;;;;;;12948645;22;19919;-83
2023/12/22 05:12:12;;;;;;;;;;;;;;;;;;12959475;22;20658;-82
2023/12/22 05:17:17;;;;;;;;;;;;;;;;;;12902790;22;19963;-79
2023/12/22 05:22:18;;;;;;;;;;;;;;;;;;12900495;22;19928;-78
2023/12/22 05:27:18;;;;;;;;;;;;;;;;;;12898256;22;19916;-81
2023/12/22 05:32:19;;;;;;;;;;;;;;;;;;12927626;22;20315;-84
2023/12/22 05:37:19;;;;;;;;;;;;;;;;;;12923183;22;19945;-79
2023/12/22 05:42:20;;;;;;;;;;;;;;;;;;12873079;22;19966;-83
2023/12/22 05:47:20;;;;;;;;;;;;;;;;;;12931904;22;19915;-81
2023/12/22 05:52:20;;;;;;;;;;;;;;;;;;12876497;22;20245;-84
2023/12/22 05:57:22;;;;;;;;;;;;;;;;;;12874594;22;20257;-83
2023/12/22 06:02:24;;;;;;;;;;;;;;;;;;12864825;22;19915;-83
2023/12/22 06:07:26;;;;;;;;;;;;;;;;;;12860332;22;19991;-82
2023/12/22 06:12:30;;;;;;;;;;;;;;;;;;12878590;22;19915;-79
2023/12/22 06:17:31;;;;;;;;;;;;;;;;;;12895260;22;20350;-81
2023/12/22 06:22:33;;;;;;;;;;;;;;;;;;12890183;22;19925;-82
2023/12/22 06:27:34;;;;;;;;;;;;;;;;;;12842802;22;20527;-81
2023/12/22 06:32:39;;;;;;;;;;;;;;;;;;12887299;22;19940;-83
2023/12/22 06:37:39;;;;;;;;;;;;;;;;;;12887285;22;19930;-80
2023/12/22 06:42:40;;;;;;;;;;;;;;;;;;12870525;22;19923;-82
2023/12/22 06:47:40;;;;;;;;;;;;;;;;;;12852100;22;20012;-80
2023/12/22 06:52:40;;;;;;;;;;;;;;;;;;12930091;22;19906;-84
2023/12/22 06:57:40;;;;;;;;;;;;;;;;;;12852943;22;19923;-78
2023/12/22 07:02:41;;;;;;;;;;;;;;;;;;12885251;22;19983;-78
2023/12/22 07:07:41;;;;;;;;;;;;;;;;;;12847545;22;19922;-79
2023/12/22 07:12:41;;;;;;;;;;;;;;;;;;12884980;22;19915;-78
2023/12/22 07:17:42;;;;;;;;;;;;;;;;;;12887025;22;19973;-80
2023/12/22 07:22:42;;;;;;;;;;;;;;;;;;12857628;22;19991;-79
2023/12/22 07:27:46;;;;;;;;;;;;;;;;;;12885948;22;19916;-80
2023/12/22 07:32:48;;;;;;;;;;;;;;;;;;12879951;22;19991;-77
2023/12/22 07:37:48;;;;;;;;;;;;;;;;;;12881306;22;19976;-80
2023/12/22 07:42:50;;;;;;;;;;;;;;;;;;12882343;22;19915;-78
2023/12/22 07:47:51;;;;;;;;;;;;;;;;;;12856446;22;19916;-82
2023/12/22 07:52:52;;;;;;;;;;;;;;;;;;12867292;22;19912;-81
2023/12/22 07:57:53;;;;;;;;;;;;;;;;;;12881109;22;19943;-80
2023/12/22 08:02:53;;;;;;;;;;;;;;;;;;12882942;22;19981;-78
2023/12/22 08:07:53;;;;;;;;;;;;;;;;;;12883067;22;19915;-81
2023/12/22 08:12:53;;;;;;;;;;;;;;;;;;12841282;22;19916;-80
2023/12/22 08:17:54;;;;;;;;;;;;;;;;;;12875612;22;19923;-83
2023/12/22 08:22:54;;;;;;;;;;;;;;;;;;12873088;22;20343;-80
2023/12/22 08:27:55;;;;;;;;;;;;;;;;;;12911196;22;19910;-84
2023/12/22 08:32:55;;;;;;;;;;;;;;;;;;12885817;22;19916;-79
2023/12/22 08:37:56;;;;;;;;;;;;;;;;;;12860972;22;20670;-80
2023/12/22 08:43:02;;;;;;;;;;;;;;;;;;12869909;22;20360;-80
2023/12/22 08:48:07;;;;;;;;;;;;;;;;;;12857182;22;19915;-80
2023/12/22 08:53:09;;;;;;;;;;;;;;;;;;12815490;22;24520;-82
2023/12/22 08:58:11;;;;;;;;;;;;;;;;;;12833656;22;19939;-82
2023/12/22 09:03:11;;;;;;;;;;;;;;;;;;12857398;22;19916;-84
2023/12/22 09:08:11;;;;;;;;;;;;;;;;;;12888584;22;19924;-84
2023/12/22 09:13:12;;;;;;;;;;;;;;;;;;12873815;22;19916;-84
2023/12/22 09:18:17;;;;;;;;;;;;;;;;;;12888881;22;20631;-84
2023/12/22 09:23:18;;;;;;;;;;;;;;;;;;12871095;22;20002;-83
2023/12/22 09:28:18;;;;;;;;;;;;;;;;;;12875781;22;19899;-80
2023/12/22 09:33:18;;;;;;;;;;;;;;;;;;12928781;22;19923;-82
2023/12/22 09:38:20;;;;;;;;;;;;;;;;;;12921090;22;20302;-82
2023/12/22 09:43:21;;;;;;;;;;;;;;;;;;12938244;22;19949;-83
2023/12/22 09:48:27;;;;;;;;;;;;;;;;;;12935657;22;19899;-84
2023/12/22 09:53:27;;;;;;;;;;;;;;;;;;12897206;22;19916;-82
2023/12/22 09:58:27;;;;;;;;;;;;;;;;;;12859093;22;19974;-81
2023/12/22 10:03:28;;;;;;;;;;;;;;;;;;12877443;22;20515;-83
2023/12/22 10:08:29;;;;;;;;;;;;;;;;;;12877443;22;19912;-82
2023/12/22 10:13:29;;;;;;;;;;;;;;;;;;12877315;22;20237;-82
2023/12/22 10:18:30;;;;;;;;;;;;;;;;;;12918721;22;19941;-85
2023/12/22 10:23:31;;;;;;;;;;;;;;;;;;12892664;22;20742;-85
2023/12/22 10:28:31;;;;;;;;;;;;;;;;;;12859462;22;19931;-80
2023/12/22 10:33:32;;;;;;;;;;;;;;;;;;12842578;22;19928;-83
2023/12/22 10:38:32;;;;;;;;;;;;;;;;;;12866895;22;19930;-80
2023/12/22 10:43:34;;;;;;;;;;;;;;;;;;12884655;22;19915;-82
2023/12/22 10:48:35;;;;;;;;;;;;;;;;;;12886129;22;19922;-83
2023/12/22 10:53:37;;;;;;;;;;;;;;;;;;12859239;22;19968;-86
2023/12/22 10:58:39;;;;;;;;;;;;;;;;;;12859312;22;20438;-87
2023/12/22 11:03:39;;;;;;;;;;;;;;;;;;12860132;22;19916;-82
2023/12/22 11:08:40;;;;;;;;;;;;;;;;;;12859476;22;19965;-80
2023/12/22 11:13:40;;;;;;;;;;;;;;;;;;12887556;22;20180;-83
2023/12/22 11:18:40;;;;;;;;;;;;;;;;;;12884875;22;20288;-81
2023/12/22 11:23:40;;;;;;;;;;;;;;;;;;12880824;22;19916;-80
2023/12/22 11:28:40;;;;;;;;;;;;;;;;;;12855515;22;19911;-81
2023/12/22 11:33:41;;;;;;;;;;;;;;;;;;12884378;22;20274;-82
2023/12/22 11:38:41;;;;;;;;;;;;;;;;;;12851940;22;19920;-82
2023/12/22 11:43:41;;;;;;;;;;;;;;;;;;12857449;22;19911;-79
2023/12/22 11:48:41;;;;;;;;;;;;;;;;;;12882050;22;20644;-81
2023/12/22 11:53:42;;;;;;;;;;;;;;;;;;12828995;22;20935;-81
2023/12/22 11:58:42;;;;;;;;;;;;;;;;;;12856188;22;20366;-81
2023/12/22 12:03:42;;;;;;;;;;;;;;;;;;12885556;22;19915;-82
2023/12/22 12:08:44;;;;;;;;;;;;;;;;;;12915302;22;19916;-83
2023/12/22 12:13:44;;;;;;;;;;;;;;;;;;12909569;22;19899;-83
2023/12/22 12:18:47;;;;;;;;;;;;;;;;;;12914578;22;19935;-83
2023/12/22 12:23:47;;;;;;;;;;;;;;;;;;12915924;22;19990;-82
2023/12/22 12:28:47;;;;;;;;;;;;;;;;;;12910790;22;19900;-82
2023/12/22 12:33:48;;;;;;;;;;;;;;;;;;12909960;22;19915;-84
2023/12/22 12:38:48;;;;;;;;;;;;;;;;;;12923935;22;19919;-82
2023/12/22 12:43:48;;;;;;;;;;;;;;;;;;12912311;22;19900;-84
2023/12/22 12:48:48;;;;;;;;;;;;;;;;;;12898860;22;19916;-82
2023/12/22 12:53:52;;;;;;;;;;;;;;;;;;12895783;22;19916;-82
2023/12/22 12:58:52;;;;;;;;;;;;;;;;;;12862402;22;20054;-82
2023/12/22 13:03:53;;;;;;;;;;;;;;;;;;12898456;22;19900;-83
2023/12/22 13:08:54;;;;;;;;;;;;;;;;;;12876186;22;19959;-81
2023/12/22 13:13:54;;;;;;;;;;;;;;;;;;12886694;22;20034;-80
2023/12/22 13:18:55;;;;;;;;;;;;;;;;;;12930946;22;19927;-81
2023/12/22 13:23:55;;;;;;;;;;;;;;;;;;12932095;22;19916;-82
2023/12/22 13:28:56;;;;;;;;;;;;;;;;;;12889947;22;19946;-84
2023/12/22 13:33:56;;;;;;;;;;;;;;;;;;12918143;22;19994;-84
2023/12/22 13:38:59;;;;;;;;;;;;;;;;;;12921032;22;19928;-81
2023/12/22 13:44:01;;;;;;;;;;;;;;;;;;12900721;22;19915;-82
2023/12/22 13:49:01;;;;;;;;;;;;;;;;;;12885249;22;19920;-82
2023/12/22 13:54:02;;;;;;;;;;;;;;;;;;12889631;22;20265;-81
2023/12/22 13:59:03;;;;;;;;;;;;;;;;;;12870952;22;19957;-84
2023/12/22 14:04:04;;;;;;;;;;;;;;;;;;12847324;22;20075;-84
2023/12/22 14:09:04;;;;;;;;;;;;;;;;;;12893459;22;19922;-84
2023/12/22 14:14:04;;;;;;;;;;;;;;;;;;12860370;22;20420;-83
2023/12/22 14:19:05;;;;;;;;;;;;;;;;;;12899714;22;19924;-84
2023/12/22 14:24:05;;;;;;;;;;;;;;;;;;12893623;22;19961;-82
2023/12/22 14:29:06;;;;;;;;;;;;;;;;;;12899860;22;19912;-80
2023/12/22 14:34:06;;;;;;;;;;;;;;;;;;12937671;22;20060;-81
2023/12/22 14:39:06;;;;;;;;;;;;;;;;;;12946912;22;19920;-81
2023/12/22 14:44:07;;;;;;;;;;;;;;;;;;12946049;22;19900;-82
2023/12/22 14:49:07;;;;;;;;;;;;;;;;;;12925424;22;19918;-82
2023/12/22 14:54:08;;;;;;;;;;;;;;;;;;12918554;22;19915;-81
2023/12/22 14:59:09;;;;;;;;;;;;;;;;;;12901405;22;19928;-85
2023/12/22 15:04:12;;;;;;;;;;;;;;;;;;12868702;22;19945;-85
2023/12/22 15:09:13;;;;;;;;;;;;;;;;;;12882249;22;19981;-80
2023/12/22 15:14:13;;;;;;;;;;;;;;;;;;12874240;22;20321;-87
2023/12/22 15:19:13;;;;;;;;;;;;;;;;;;12877190;22;19942;-84
2023/12/22 15:24:14;;;;;;;;;;;;;;;;;;12900094;22;19995;-83
2023/12/22 15:29:16;;;;;;;;;;;;;;;;;;12892175;22;19920;-78
2023/12/22 15:34:16;;;;;;;;;;;;;;;;;;12868137;22;19915;-79
2023/12/22 15:39:20;;;;;;;;;;;;;;;;;;12882598;22;19931;-80
2023/12/22 15:44:22;;;;;;;;;;;;;;;;;;12843850;22;19918;-80
2023/12/22 15:49:22;;;;;;;;;;;;;;;;;;12858187;22;20331;-81
2023/12/22 15:54:23;;;;;;;;;;;;;;;;;;12831827;22;19916;-83
2023/12/22 15:59:25;;;;;;;;;;;;;;;;;;12873060;22;19928;-81
2023/12/22 16:04:26;;;;;;;;;;;;;;;;;;12882703;22;19919;-81
2023/12/22 16:09:26;;;;;;;;;;;;;;;;;;12841042;22;20271;-79
2023/12/22 16:14:27;;;;;;;;;;;;;;;;;;12858933;22;19979;-81
2023/12/22 16:19:28;;;;;;;;;;;;;;;;;;12868596;22;20516;-81
2023/12/22 16:24:28;;;;;;;;;;;;;;;;;;12871166;22;19988;-78
2023/12/22 16:29:28;;;;;;;;;;;;;;;;;;12884956;22;19943;-81
2023/12/22 16:34:30;;;;;;;;;;;;;;;;;;12886904;22;19916;-81
2023/12/22 16:39:30;;;;;;;;;;;;;;;;;;12890372;22;19929;-79
2023/12/22 16:44:32;;;;;;;;;;;;;;;;;;12900390;22;19919;-78
2023/12/22 16:49:32;;;;;;;;;;;;;;;;;;12902183;22;19965;-83
2023/12/22 16:54:32;;;;;;;;;;;;;;;;;;12846843;22;19992;-82
2023/12/22 16:59:34;;;;;;;;;;;;;;;;;;12899460;22;20253;-83
2023/12/22 17:04:34;;;;;;;;;;;;;;;;;;12891922;22;19988;-84
2023/12/22 17:09:34;;;;;;;;;;;;;;;;;;12889987;22;19916;-85
2023/12/22 17:14:36;;;;;;;;;;;;;;;;;;12865296;22;19916;-83
2023/12/22 17:19:36;;;;;;;;;;;;;;;;;;12832659;22;19931;-85
2023/12/22 17:24:42;;;;;;;;;;;;;;;;;;12854378;22;19916;-85
2023/12/22 17:29:45;;;;;;;;;;;;;;;;;;12951527;22;19997;-86
2023/12/22 17:40:09;;;;;;;;;;;;;;;;;;12786675;22;19924;-86
2023/12/22 17:45:12;;;;;;;;;;;;;;;;;;12873014;22;19923;-86
2023/12/22 17:50:13;;;;;;;;;;;;;;;;;;13069308;22;19900;-84
2023/12/22 17:55:15;;;;;;;;;;;;;;;;;;12990460;22;19923;-87
2023/12/22 18:00:15;;;;;;;;;;;;;;;;;;12975543;22;19900;-85
2023/12/22 18:05:15;;;;;;;;;;;;;;;;;;12882012;22;19900;-85
2023/12/22 18:10:16;;;;;;;;;;;;;;;;;;12990343;22;19918;-86
2023/12/22 18:15:16;;;;;;;;;;;;;;;;;;13003354;22;19950;-84
2023/12/22 18:20:16;;;;;;;;;;;;;;;;;;12897501;22;19900;-84
2023/12/22 18:25:18;;;;;;;;;;;;;;;;;;12855727;22;19928;-84
2023/12/22 18:30:19;;;;;;;;;;;;;;;;;;12843528;22;19916;-85
2023/12/22 18:35:19;;;;;;;;;;;;;;;;;;12928766;22;20034;-83
2023/12/22 18:40:19;;;;;;;;;;;;;;;;;;12919508;22;19992;-85
2023/12/22 18:45:21;;;;;;;;;;;;;;;;;;12901078;22;19915;-84
2023/12/22 18:50:22;;;;;;;;;;;;;;;;;;12865754;22;19922;-84
2023/12/22 18:55:22;;;;;;;;;;;;;;;;;;12908682;22;19910;-86
2023/12/22 19:00:24;;;;;;;;;;;;;;;;;;12892693;22;19986;-85
2023/12/22 19:05:25;;;;;;;;;;;;;;;;;;12894464;22;20475;-84
2023/12/22 19:10:26;;;;;;;;;;;;;;;;;;12869305;22;19915;-86
2023/12/22 19:15:26;;;;;;;;;;;;;;;;;;12909113;22;19912;-83
2023/12/22 19:20:28;;;;;;;;;;;;;;;;;;12926102;22;19956;-84
2023/12/22 19:25:29;;;;;;;;;;;;;;;;;;12892894;22;19900;-84
2023/12/22 19:30:29;;;;;;;;;;;;;;;;;;12863520;22;19955;-86
2023/12/22 19:35:29;;;;;;;;;;;;;;;;;;12956117;22;19991;-84
2023/12/22 19:40:32;;;;;;;;;;;;;;;;;;12911546;22;19921;-87
2023/12/22 19:45:32;;;;;;;;;;;;;;;;;;12935753;22;19918;-85
2023/12/22 19:50:34;;;;;;;;;;;;;;;;;;12906742;22;19928;-84
2023/12/22 19:55:36;;;;;;;;;;;;;;;;;;12895167;22;19990;-88
2023/12/22 20:00:37;;;;;;;;;;;;;;;;;;12896503;22;19922;-87
2023/12/22 20:05:42;;;;;;;;;;;;;;;;;;12848725;22;20024;-88
2023/12/22 20:10:43;;;;;;;;;;;;;;;;;;12860246;22;19915;-87
2023/12/22 20:15:45;;;;;;;;;;;;;;;;;;12884973;22;19950;-87
2023/12/22 20:20:47;;;;;;;;;;;;;;;;;;12936183;22;19920;-89
2023/12/22 20:25:47;;;;;;;;;;;;;;;;;;12934074;22;19974;-86
2023/12/22 20:30:49;;;;;;;;;;;;;;;;;;12936851;22;19964;-85
2023/12/22 20:35:49;;;;;;;;;;;;;;;;;;12875279;22;19959;-86
2023/12/22 20:40:53;;;;;;;;;;;;;;;;;;12938242;22;19919;-85
2023/12/22 20:45:54;;;;;;;;;;;;;;;;;;12889609;22;20607;-87
2023/12/22 20:50:55;;;;;;;;;;;;;;;;;;12891215;22;19968;-83
2023/12/22 20:55:56;;;;;;;;;;;;;;;;;;12908280;22;19968;-83
2023/12/22 21:00:57;;;;;;;;;;;;;;;;;;12873588;22;20258;-87
2023/12/22 21:06:00;;;;;;;;;;;;;;;;;;12884702;22;19919;-83
2023/12/22 21:11:03;;;;;;;;;;;;;;;;;;12956090;22;19899;-88
2023/12/22 21:16:03;;;;;;;;;;;;;;;;;;12944999;22;19915;-85
2023/12/22 21:21:05;;;;;;;;;;;;;;;;;;12902414;22;19915;-84
2023/12/22 21:26:05;;;;;;;;;;;;;;;;;;12850065;22;19992;-84
2023/12/22 21:31:05;;;;;;;;;;;;;;;;;;12852048;22;20013;-79
2023/12/22 21:36:05;;;;;;;;;;;;;;;;;;12844941;22;20065;-80
2023/12/22 21:41:07;;;;;;;;;;;;;;;;;;12802876;22;20300;-80
2023/12/22 21:46:07;;;;;;;;;;;;;;;;;;12892830;22;20030;-81
2023/12/22 21:51:08;;;;;;;;;;;;;;;;;;12872334;22;19966;-79
2023/12/22 21:56:08;;;;;;;;;;;;;;;;;;12857370;22;20053;-83
2023/12/22 22:01:08;;;;;;;;;;;;;;;;;;12848413;22;19920;-83
2023/12/22 22:06:10;;;;;;;;;;;;;;;;;;12896790;22;20196;-83
2023/12/22 22:11:10;;;;;;;;;;;;;;;;;;12853316;22;19940;-81
2023/12/22 22:16:11;;;;;;;;;;;;;;;;;;12902228;22;19919;-82
2023/12/22 22:21:11;;;;;;;;;;;;;;;;;;12904349;22;19939;-85
2023/12/22 22:26:12;;;;;;;;;;;;;;;;;;12913251;22;20107;-87
2023/12/22 22:31:13;;;;;;;;;;;;;;;;;;12839365;22;20679;-84
2023/12/22 22:47:11;;;;;;;;;;;;;;;;;;12844992;22;20318;-92
2023/12/22 22:52:25;;;;;;;;;;;;;;;;;;12913707;22;19966;-91
2023/12/22 22:57:25;;;;;;;;;;;;;;;;;;13017178;22;19918;-84
2023/12/22 23:02:27;;;;;;;;;;;;;;;;;;13128093;22;19911;-81
2023/12/22 23:07:27;;;;;;;;;;;;;;;;;;13039694;22;19935;-86
2023/12/22 23:12:27;;;;;;;;;;;;;;;;;;13120444;22;19959;-88
2023/12/22 23:17:30;;;;;;;;;;;;;;;;;;13140529;22;19918;-85
2023/12/22 23:22:30;;;;;;;;;;;;;;;;;;13129268;22;19901;-84
2023/12/22 23:27:31;;;;;;;;;;;;;;;;;;12960229;22;19949;-84
2023/12/22 23:32:31;;;;;;;;;;;;;;;;;;12840093;22;19920;-84
2023/12/22 23:37:34;;;;;;;;;;;;;;;;;;12955237;22;19945;-79
2023/12/22 23:42:34;;;;;;;;;;;;;;;;;;12927356;22;19912;-86
2023/12/22 23:47:34;;;;;;;;;;;;;;;;;;12842845;22;19916;-81
2023/12/22 23:52:35;;;;;;;;;;;;;;;;;;12829754;22;19959;-81
2023/12/22 23:57:35;;;;;;;;;;;;;;;;;;12827411;22;20521;-85
